Rms Queen Mary 2 — ZCEF6 — position and weather

sailwx.info

Track history (hours):
 
Tides and Currents Weather Stations Pressure Air Temp Water Temp Dewpoint Dewpoint Depression Visibility Wind Speed Wind Dir Waves Ship Positions

Rms Queen Mary 2

Last reported at 2017-Aug-20 20:30 UTC. Time now 2017-Aug-20 20:49 UTC.
Position N 53°58' E 007°53'.

Length 345 m; draft 10.4 m.

Type: Passenger vessel. MMSI: 310627000.

Date/timePositionNaut miles runAvg speedWind from/ knotsBaromVisibWave heightAir tempDewpointWater temp
2017-Aug-20 20:30N 53°58' E 007°53'714.4
2017-Aug-20 20:00N 53°56' E 007°41'8214.9
2017-Aug-20 14:31N 53°35' E 005°28'115.5
2017-Aug-20 14:29N 53°34' E 005°27'715.3
2017-Aug-20 14:00N 53°32' E 005°15'815.1
2017-Aug-20 13:30N 53°30' E 005°03'715.0
2017-Aug-20 13:00N 53°27' E 004°52'4224.1
2017-Aug-20 13:00N 53°24' E 004°48'4 8.1 270 / 341020.910.8 18.512.217.6
2017-Aug-20 12:31N 53°23' E 004°42'1114.9
2017-Aug-20 11:45N 53°13' E 004°33'414.9
2017-Aug-20 11:30N 53°10' E 004°30'714.8
2017-Aug-20 11:00N 53°03' E 004°24'713.7
2017-Aug-20 10:30N 52°57' E 004°18'714.6
2017-Aug-20 10:00N 52°50' E 004°14'815.3
2017-Aug-20 09:30N 52°45' E 004°05'815.2
2017-Aug-20 09:00N 52°39' E 003°57'815.2
2017-Aug-20 08:30N 52°34' E 003°48'815.1
2017-Aug-20 07:58N 52°28' E 003°39'6615.2
2017-Aug-20 03:36N 51°39' E 002°26'216.0
2017-Aug-20 03:30N 51°38' E 002°24'917.0
2017-Aug-20 03:00N 51°32' E 002°15'918.6
2017-Aug-20 02:30N 51°25' E 002°05'917.2
2017-Aug-20 02:01N 51°18' E 001°56'917.8
2017-Aug-20 01:31N 51°12' E 001°47'1019.0
2017-Aug-20 01:01N 51°04' E 001°38'1019.4
2017-Aug-20 00:30N 50°57' E 001°27'1019.4
2017-Aug-20 00:00N 50°48' E 001°22'2517.6
2017-Aug-19 22:35N 50°31' E 000°53'218.2
2017-Aug-19 22:30N 50°30' E 000°51'1418.2
2017-Aug-19 21:42N 50°27' E 000°29'418.2
2017-Aug-19 21:30N 50°26' E 000°23'1018.4
2017-Aug-19 20:58N 50°23' E 000°08'918.5
2017-Aug-19 20:30N 50°22' W 000°05'919.0
2017-Aug-19 20:00N 50°24' W 000°20'919.0
2017-Aug-19 19:30N 50°28' W 000°33'918.7
2017-Aug-19 19:00N 50°33' W 000°45'917.7
2017-Aug-19 18:30N 50°39' W 000°56'611.5
2017-Aug-19 18:00N 50°43' W 001°02'917.8
2017-Aug-19 17:30N 50°46' W 001°15'5 9.4
2017-Aug-19 17:00N 50°50' W 001°19'4 7.9
2017-Aug-19 16:30N 50°53' W 001°24'1 0.8
2017-Aug-19 15:38N 50°53' W 001°24'0 0.0
2017-Aug-19 15:29N 50°53' W 001°24'0 0.0
2017-Aug-19 14:41N 50°53' W 001°24'0 0.0
2017-Aug-19 13:26N 50°53' W 001°24'0 0.0
2017-Aug-19 12:56N 50°53' W 001°24'0 0.0
2017-Aug-19 12:14N 50°53' W 001°24'0 0.0
2017-Aug-19 11:56N 50°53' W 001°24'0 0.0
2017-Aug-19 11:26N 50°53' W 001°24'0 0.0
2017-Aug-19 10:56N 50°53' W 001°24'0 0.0
2017-Aug-19 10:29N 50°53' W 001°24'0 0.0
2017-Aug-19 09:50N 50°53' W 001°24'0 0.0
2017-Aug-19 09:26N 50°53' W 001°24'0 0.0
2017-Aug-19 08:50N 50°53' W 001°24'0 0.0
2017-Aug-19 08:29N 50°53' W 001°24'0 0.0
2017-Aug-19 07:56N 50°53' W 001°24'0 0.0
2017-Aug-19 07:29N 50°53' W 001°24'0 0.0
2017-Aug-19 07:00N 50°53' W 001°24'0 0.0
2017-Aug-19 06:31N 50°53' W 001°24'0 0.4
2017-Aug-19 06:00N 50°53' W 001°24'3 6.5
2017-Aug-19 05:30N 50°51' W 001°20'4 7.5
2017-Aug-19 05:01N 50°48' W 001°19'510.4
2017-Aug-19 04:30N 50°46' W 001°11'815.8
2017-Aug-19 04:01N 50°43' W 000°59'510.2
2017-Aug-19 03:31N 50°38' W 000°56'4 8.7
2017-Aug-19 03:01N 50°34' W 000°59'714.1
2017-Aug-19 02:30N 50°31' W 001°08'1019.6
2017-Aug-19 02:00N 50°28' W 001°23'4220.9
2017-Aug-19 00:00N 50°15' W 002°26'1021.0
2017-Aug-18 23:30N 50°11' W 002°41'1121.2
2017-Aug-18 23:00N 50°08' W 002°56'1121.3
2017-Aug-18 22:30N 50°04' W 003°12'1121.4
2017-Aug-18 22:00N 50°01' W 003°28'1019.3
2017-Aug-18 21:30N 49°58' W 003°42'1020.8
2017-Aug-18 21:00N 49°55' W 003°58'1122.0
2017-Aug-18 20:30N 49°53' W 004°14'1122.1
2017-Aug-18 20:01N 49°50' W 004°31'1421.0
2017-Aug-18 19:22N 49°46' W 004°51'11827.1
2017-Aug-18 15:00N 49°42' W 007°54'96821.0 270 / 251017.410.8 16.010.315.6
2017-Aug-16 17:00N 49°12' W 032°42'23621.4 290 / 201008.710.8 21.014.215.7
2017-Aug-16 06:00N 48°18' W 038°30'24120.1 260 / 221006.910.8 17.011.515.0
2017-Aug-15 18:00N 47°06' W 044°12'51821.6 260 / 251010.310.8 23.512.112.5
2017-Aug-14 18:00N 43°42' W 055°30'25418.1 280 / 151015.010.8 21.016.918.1
2017-Aug-14 04:00N 42°12' W 060°54'11118.5 290 / 31010.5 5.4 23.522.023.8
2017-Aug-13 22:00N 41°42' W 063°18'7023.2 180 / 301011.4 5.4 23.021.519.4
2017-Aug-13 19:00N 41°24' W 064°48'29220.9 180 / 291013.910.8 23.521.218.0
2017-Aug-13 05:00N 40°24' W 071°06'12321.4 180 / 151013.3 5.4 21.520.021.5
2017-Aug-12 23:15N 40°27' W 073°47'312.1
2017-Aug-12 23:00N 40°28' W 073°51'714.9
2017-Aug-12 22:30N 40°31' W 073°60'714.6
2017-Aug-12 22:01N 40°38' W 074°03'4 7.1
2017-Aug-12 21:31N 40°41' W 074°01'0 0.4
2017-Aug-12 21:00N 40°41' W 074°01'0 0.0
2017-Aug-12 20:30N 40°41' W 074°01'0 0.0
2017-Aug-12 20:00N 40°41' W 074°01'0 0.0
2017-Aug-12 19:30N 40°41' W 074°01'0 0.0
2017-Aug-12 19:00N 40°41' W 074°01'0 0.0
2017-Aug-12 18:30N 40°41' W 074°01'0 0.0
2017-Aug-12 18:00N 40°41' W 074°01'0 0.0
2017-Aug-12 17:30N 40°41' W 074°01'0 0.0
2017-Aug-12 17:00N 40°41' W 074°01'0 0.0
2017-Aug-12 16:30N 40°41' W 074°01'0 0.0
2017-Aug-12 16:00N 40°41' W 074°01'0 0.0
2017-Aug-12 15:30N 40°41' W 074°01'0 0.0
2017-Aug-12 15:00N 40°41' W 074°01'0 0.0
2017-Aug-12 14:30N 40°41' W 074°01'0 0.0
2017-Aug-12 14:00N 40°41' W 074°01'0 0.0
2017-Aug-12 13:30N 40°41' W 074°01'0 0.0
2017-Aug-12 13:00N 40°41' W 074°01'0 0.0
2017-Aug-12 12:30N 40°41' W 074°01'0 0.0
2017-Aug-12 12:00N 40°41' W 074°01'0 0.0
2017-Aug-12 11:30N 40°41' W 074°01'0 0.0
2017-Aug-12 11:01N 40°41' W 074°01'0 0.0
2017-Aug-12 10:31N 40°41' W 074°01'0 0.5
2017-Aug-12 10:01N 40°41' W 074°01'1 1.4
2017-Aug-12 09:30N 40°41' W 074°02'4 7.9
2017-Aug-12 09:00N 40°37' W 074°03'612.8
2017-Aug-12 08:30N 40°31' W 073°59'714.9
2017-Aug-12 08:01N 40°28' W 073°50'3814.6
2017-Aug-12 05:25N 40°31' W 073°00'715.9
2017-Aug-12 04:59N 40°31' W 072°51'816.1
2017-Aug-12 04:30N 40°32' W 072°41'816.3
2017-Aug-12 04:00N 40°32' W 072°30'815.9
2017-Aug-12 03:30N 40°31' W 072°20'815.8
2017-Aug-12 03:00N 40°31' W 072°10'816.6
2017-Aug-12 02:30N 40°31' W 071°59'816.4
2017-Aug-12 02:00N 40°32' W 071°48'816.1
2017-Aug-12 01:30N 40°32' W 071°37'1515.9
2017-Aug-12 00:35N 40°33' W 071°18'  
Track history (hours):
 
Tides and Currents Weather Stations Pressure Air Temp Water Temp Dewpoint Dewpoint Depression Visibility Wind Speed Wind Dir Waves Ship Positions

Rms Queen Mary 2

Last reported at 2017-Aug-20 20:30 UTC. Time now 2017-Aug-20 20:49 UTC.
Position N 53°58' E 007°53'.

Length 345 m; draft 10.4 m.

Type: Passenger vessel. MMSI: 310627000.

Date/timePositionNaut miles runAvg speedWind from/ knotsBaromVisibWave heightAir tempDewpointWater temp
2017-Aug-20 20:30N 53°58' E 007°53'714.4
2017-Aug-20 20:00N 53°56' E 007°41'8214.9
2017-Aug-20 14:31N 53°35' E 005°28'115.5
2017-Aug-20 14:29N 53°34' E 005°27'715.3
2017-Aug-20 14:00N 53°32' E 005°15'815.1
2017-Aug-20 13:30N 53°30' E 005°03'715.0
2017-Aug-20 13:00N 53°27' E 004°52'4224.1
2017-Aug-20 13:00N 53°24' E 004°48'4 8.1 270 / 341020.910.8 18.512.217.6
2017-Aug-20 12:31N 53°23' E 004°42'1114.9
2017-Aug-20 11:45N 53°13' E 004°33'414.9
2017-Aug-20 11:30N 53°10' E 004°30'714.8
2017-Aug-20 11:00N 53°03' E 004°24'713.7
2017-Aug-20 10:30N 52°57' E 004°18'714.6
2017-Aug-20 10:00N 52°50' E 004°14'815.3
2017-Aug-20 09:30N 52°45' E 004°05'815.2
2017-Aug-20 09:00N 52°39' E 003°57'815.2
2017-Aug-20 08:30N 52°34' E 003°48'815.1
2017-Aug-20 07:58N 52°28' E 003°39'6615.2
2017-Aug-20 03:36N 51°39' E 002°26'216.0
2017-Aug-20 03:30N 51°38' E 002°24'917.0
2017-Aug-20 03:00N 51°32' E 002°15'918.6
2017-Aug-20 02:30N 51°25' E 002°05'917.2
2017-Aug-20 02:01N 51°18' E 001°56'917.8
2017-Aug-20 01:31N 51°12' E 001°47'1019.0
2017-Aug-20 01:01N 51°04' E 001°38'1019.4
2017-Aug-20 00:30N 50°57' E 001°27'1019.4
2017-Aug-20 00:00N 50°48' E 001°22'2517.6
2017-Aug-19 22:35N 50°31' E 000°53'218.2
2017-Aug-19 22:30N 50°30' E 000°51'1418.2
2017-Aug-19 21:42N 50°27' E 000°29'418.2
2017-Aug-19 21:30N 50°26' E 000°23'1018.4
2017-Aug-19 20:58N 50°23' E 000°08'918.5
2017-Aug-19 20:30N 50°22' W 000°05'919.0
2017-Aug-19 20:00N 50°24' W 000°20'919.0
2017-Aug-19 19:30N 50°28' W 000°33'918.7
2017-Aug-19 19:00N 50°33' W 000°45'917.7
2017-Aug-19 18:30N 50°39' W 000°56'611.5
2017-Aug-19 18:00N 50°43' W 001°02'917.8
2017-Aug-19 17:30N 50°46' W 001°15'5 9.4
2017-Aug-19 17:00N 50°50' W 001°19'4 7.9
2017-Aug-19 16:30N 50°53' W 001°24'1 0.8
2017-Aug-19 15:38N 50°53' W 001°24'0 0.0
2017-Aug-19 15:29N 50°53' W 001°24'0 0.0
2017-Aug-19 14:41N 50°53' W 001°24'0 0.0
2017-Aug-19 13:26N 50°53' W 001°24'0 0.0
2017-Aug-19 12:56N 50°53' W 001°24'0 0.0
2017-Aug-19 12:14N 50°53' W 001°24'0 0.0
2017-Aug-19 11:56N 50°53' W 001°24'0 0.0
2017-Aug-19 11:26N 50°53' W 001°24'0 0.0
2017-Aug-19 10:56N 50°53' W 001°24'0 0.0
2017-Aug-19 10:29N 50°53' W 001°24'0 0.0
2017-Aug-19 09:50N 50°53' W 001°24'0 0.0
2017-Aug-19 09:26N 50°53' W 001°24'0 0.0
2017-Aug-19 08:50N 50°53' W 001°24'0 0.0
2017-Aug-19 08:29N 50°53' W 001°24'0 0.0
2017-Aug-19 07:56N 50°53' W 001°24'0 0.0
2017-Aug-19 07:29N 50°53' W 001°24'0 0.0
2017-Aug-19 07:00N 50°53' W 001°24'0 0.0
2017-Aug-19 06:31N 50°53' W 001°24'0 0.4
2017-Aug-19 06:00N 50°53' W 001°24'3 6.5
2017-Aug-19 05:30N 50°51' W 001°20'4 7.5
2017-Aug-19 05:01N 50°48' W 001°19'510.4
2017-Aug-19 04:30N 50°46' W 001°11'815.8
2017-Aug-19 04:01N 50°43' W 000°59'510.2
2017-Aug-19 03:31N 50°38' W 000°56'4 8.7
2017-Aug-19 03:01N 50°34' W 000°59'714.1
2017-Aug-19 02:30N 50°31' W 001°08'1019.6
2017-Aug-19 02:00N 50°28' W 001°23'4220.9
2017-Aug-19 00:00N 50°15' W 002°26'1021.0
2017-Aug-18 23:30N 50°11' W 002°41'1121.2
2017-Aug-18 23:00N 50°08' W 002°56'1121.3
2017-Aug-18 22:30N 50°04' W 003°12'1121.4
2017-Aug-18 22:00N 50°01' W 003°28'1019.3
2017-Aug-18 21:30N 49°58' W 003°42'1020.8
2017-Aug-18 21:00N 49°55' W 003°58'1122.0
2017-Aug-18 20:30N 49°53' W 004°14'1122.1
2017-Aug-18 20:01N 49°50' W 004°31'1421.0
2017-Aug-18 19:22N 49°46' W 004°51'11827.1
2017-Aug-18 15:00N 49°42' W 007°54'96821.0 270 / 251017.410.8 16.010.315.6
2017-Aug-16 17:00N 49°12' W 032°42'23621.4 290 / 201008.710.8 21.014.215.7
2017-Aug-16 06:00N 48°18' W 038°30'24120.1 260 / 221006.910.8 17.011.515.0
2017-Aug-15 18:00N 47°06' W 044°12'51821.6 260 / 251010.310.8 23.512.112.5
2017-Aug-14 18:00N 43°42' W 055°30'25418.1 280 / 151015.010.8 21.016.918.1
2017-Aug-14 04:00N 42°12' W 060°54'11118.5 290 / 31010.5 5.4 23.522.023.8
2017-Aug-13 22:00N 41°42' W 063°18'7023.2 180 / 301011.4 5.4 23.021.519.4
2017-Aug-13 19:00N 41°24' W 064°48'29220.9 180 / 291013.910.8 23.521.218.0
2017-Aug-13 05:00N 40°24' W 071°06'12321.4 180 / 151013.3 5.4 21.520.021.5
2017-Aug-12 23:15N 40°27' W 073°47'312.1
2017-Aug-12 23:00N 40°28' W 073°51'714.9
2017-Aug-12 22:30N 40°31' W 073°60'714.6
2017-Aug-12 22:01N 40°38' W 074°03'4 7.1
2017-Aug-12 21:31N 40°41' W 074°01'0 0.4
2017-Aug-12 21:00N 40°41' W 074°01'0 0.0
2017-Aug-12 20:30N 40°41' W 074°01'0 0.0
2017-Aug-12 20:00N 40°41' W 074°01'0 0.0
2017-Aug-12 19:30N 40°41' W 074°01'0 0.0
2017-Aug-12 19:00N 40°41' W 074°01'0 0.0
2017-Aug-12 18:30N 40°41' W 074°01'0 0.0
2017-Aug-12 18:00N 40°41' W 074°01'0 0.0
2017-Aug-12 17:30N 40°41' W 074°01'0 0.0
2017-Aug-12 17:00N 40°41' W 074°01'0 0.0
2017-Aug-12 16:30N 40°41' W 074°01'0 0.0
2017-Aug-12 16:00N 40°41' W 074°01'0 0.0
2017-Aug-12 15:30N 40°41' W 074°01'0 0.0
2017-Aug-12 15:00N 40°41' W 074°01'0 0.0
2017-Aug-12 14:30N 40°41' W 074°01'0 0.0
2017-Aug-12 14:00N 40°41' W 074°01'0 0.0
2017-Aug-12 13:30N 40°41' W 074°01'0 0.0
2017-Aug-12 13:00N 40°41' W 074°01'0 0.0
2017-Aug-12 12:30N 40°41' W 074°01'0 0.0
2017-Aug-12 12:00N 40°41' W 074°01'0 0.0
2017-Aug-12 11:30N 40°41' W 074°01'0 0.0
2017-Aug-12 11:01N 40°41' W 074°01'0 0.0
2017-Aug-12 10:31N 40°41' W 074°01'0 0.5
2017-Aug-12 10:01N 40°41' W 074°01'1 1.4
2017-Aug-12 09:30N 40°41' W 074°02'4 7.9
2017-Aug-12 09:00N 40°37' W 074°03'612.8
2017-Aug-12 08:30N 40°31' W 073°59'714.9
2017-Aug-12 08:01N 40°28' W 073°50'3814.6
2017-Aug-12 05:25N 40°31' W 073°00'715.9
2017-Aug-12 04:59N 40°31' W 072°51'816.1
2017-Aug-12 04:30N 40°32' W 072°41'816.3
2017-Aug-12 04:00N 40°32' W 072°30'815.9
2017-Aug-12 03:30N 40°31' W 072°20'815.8
2017-Aug-12 03:00N 40°31' W 072°10'816.6
2017-Aug-12 02:30N 40°31' W 071°59'816.4
2017-Aug-12 02:00N 40°32' W 071°48'816.1
2017-Aug-12 01:30N 40°32' W 071°37'1515.9
2017-Aug-12 00:35N 40°33' W 071°18'  

Dump ship's entire track history